Time;durP1;ratioP1;P1;durP2;ratioP2;P2;SDS_P1;SDS_P2;PMS_P1;PMS_P2;Temp;Humidity;BMP_temperature;BMP_pressure;BME280_temperature;BME280_humidity;BME280_pressure;Samples;Min_cycle;Max_cycle;Signal;HPM_P1;HPM_P2
2023/01/10 00:00:34;;;;;;;1.57;0.90;;;6.90;99.90;;;;;;4944879;28;20267;-78
2023/01/10 00:03:08;;;;;;;1.25;1.10;;;7.00;99.90;;;;;;4950522;29;20208;-78
2023/01/10 00:05:35;;;;;;;1.52;0.88;;;7.30;99.90;;;;;;4950498;29;20273;-79
2023/01/10 00:08:03;;;;;;;1.80;0.80;;;6.80;99.90;;;;;;4949473;28;20185;-77
2023/01/10 00:10:30;;;;;;;1.10;0.98;;;7.00;99.90;;;;;;4933417;29;20214;-78
2023/01/10 00:15:40;;;;;;;1.17;1.08;;;7.20;99.90;;;;;;4950181;28;20187;-78
2023/01/10 00:18:05;;;;;;;0.93;0.80;;;7.40;99.90;;;;;;4932999;29;20562;-78
2023/01/10 00:20:31;;;;;;;1.17;1.07;;;7.30;99.90;;;;;;4950364;29;20192;-78
2023/01/10 00:22:56;;;;;;;0.70;0.70;;;7.20;99.90;;;;;;4948632;29;20267;-77
2023/01/10 00:25:22;;;;;;;1.20;1.10;;;6.90;99.90;;;;;;4947644;28;20611;-76
2023/01/10 00:27:56;;;;;;;0.97;0.73;;;7.10;99.90;;;;;;4949887;29;20247;-77
2023/01/10 00:30:22;;;;;;;1.50;1.10;;;7.20;99.90;;;;;;4948238;28;20443;-77
2023/01/10 00:32:47;;;;;;;3.33;1.30;;;7.20;99.90;;;;;;4949693;29;20279;-77
2023/01/10 00:35:13;;;;;;;0.80;0.80;;;7.20;99.90;;;;;;4950874;29;20688;-77
2023/01/10 00:37:39;;;;;;;1.07;0.70;;;7.20;99.90;;;;;;4931432;29;20193;-77
2023/01/10 00:40:07;;;;;;;0.95;0.82;;;6.90;99.90;;;;;;4948371;28;21656;-77
2023/01/10 00:45:18;;;;;;;1.27;0.88;;;7.50;99.90;;;;;;4946335;28;20220;-78
2023/01/10 00:47:44;;;;;;;0.93;0.93;;;6.50;99.90;;;;;;4949293;29;20228;-77
2023/01/10 00:50:10;;;;;;;1.20;1.00;;;7.00;99.90;;;;;;4950671;28;20263;-77
2023/01/10 00:52:36;;;;;;;1.20;0.95;;;7.00;99.90;;;;;;4930916;28;20668;-78
2023/01/10 00:55:02;;;;;;;0.90;0.90;;;7.10;99.90;;;;;;4946165;28;20305;-77
2023/01/10 00:57:27;;;;;;;1.10;1.00;;;7.10;99.90;;;;;;4949569;29;20192;-77
2023/01/10 00:59:53;;;;;;;0.80;0.70;;;7.20;99.90;;;;;;4947863;28;20201;-77
2023/01/10 01:02:18;;;;;;;1.67;1.00;;;7.00;99.90;;;;;;4936146;29;20184;-77
2023/01/10 01:04:44;;;;;;;1.30;1.00;;;6.50;99.90;;;;;;4947784;29;20291;-78
2023/01/10 01:07:09;;;;;;;1.70;1.00;;;7.20;99.90;;;;;;4950433;29;20209;-76
2023/01/10 01:10:25;;;;;;;1.00;0.90;;;7.10;99.90;;;;;;4951649;28;20203;-77
2023/01/10 01:12:20;;;;;;;0.90;0.90;;;7.10;99.90;;;;;;4951503;29;20267;-78
2023/01/10 01:14:45;;;;;;;1.40;1.17;;;7.10;99.90;;;;;;4950123;28;20193;-78
2023/01/10 01:17:11;;;;;;;1.00;1.00;;;7.00;99.90;;;;;;4932843;29;20709;-78
2023/01/10 01:19:36;;;;;;;1.13;1.03;;;6.90;99.90;;;;;;4935531;29;20181;-78
2023/01/10 01:22:02;;;;;;;1.13;1.03;;;7.00;99.90;;;;;;4936251;29;20609;-78
2023/01/10 01:24:27;;;;;;;1.30;1.20;;;7.40;99.90;;;;;;4952110;28;20210;-78
2023/01/10 01:26:53;;;;;;;1.13;1.03;;;6.80;99.90;;;;;;4935385;29;20536;-77
2023/01/10 01:29:18;;;;;;;2.87;1.37;;;7.20;99.90;;;;;;4951042;28;20189;-76
2023/01/10 01:31:44;;;;;;;1.30;1.20;;;7.10;99.90;;;;;;4936183;29;20212;-77
2023/01/10 01:34:10;;;;;;;1.40;1.30;;;7.00;99.90;;;;;;4953213;29;20229;-77
2023/01/10 01:36:35;;;;;;;1.57;0.80;;;7.00;99.90;;;;;;4949958;29;20444;-78
2023/01/10 01:39:02;;;;;;;0.93;0.80;;;6.90;99.90;;;;;;4934221;29;20189;-78
2023/01/10 01:44:16;;;;;;;0.85;0.80;;;7.40;99.90;;;;;;4950649;29;20263;-78
2023/01/10 01:46:46;;;;;;;0.80;0.73;;;6.60;99.90;;;;;;4952860;28;20244;-77
2023/01/10 01:49:21;;;;;;;2.40;0.90;;;6.80;99.90;;;;;;4936245;29;20200;-77
2023/01/10 01:51:53;;;;;;;0.80;0.70;;;7.00;99.90;;;;;;4950030;29;20205;-76
2023/01/10 01:54:19;;;;;;;0.98;0.90;;;7.30;99.90;;;;;;4952065;28;20291;-77
2023/01/10 01:56:58;;;;;;;0.70;0.70;;;7.20;99.90;;;;;;4951637;29;20281;-77
2023/01/10 01:59:32;;;;;;;1.02;0.93;;;7.10;99.90;;;;;;4931634;28;20457;-78
2023/01/10 02:02:06;;;;;;;0.85;0.80;;;7.00;99.90;;;;;;4951132;29;20181;-78
2023/01/10 02:04:44;;;;;;;0.60;0.60;;;6.90;99.90;;;;;;4952814;29;20266;-77
2023/01/10 02:07:11;;;;;;;1.30;1.05;;;6.40;99.90;;;;;;4935867;29;20189;-78
2023/01/10 02:09:46;;;;;;;0.68;0.68;;;7.10;99.90;;;;;;4951681;28;20192;-78
2023/01/10 02:12:13;;;;;;;0.80;0.70;;;6.80;99.90;;;;;;4949279;28;20215;-78
2023/01/10 02:14:40;;;;;;;0.82;0.68;;;7.00;99.90;;;;;;4934399;29;20255;-77
2023/01/10 02:17:09;;;;;;;0.70;0.70;;;6.60;99.90;;;;;;4934871;29;20189;-77
2023/01/10 02:20:06;;;;;;;0.90;0.90;;;6.90;99.90;;;;;;4951584;29;20197;-76
2023/01/10 02:22:53;;;;;;;0.82;0.82;;;6.90;99.90;;;;;;4934056;29;20587;-77
2023/01/10 02:25:43;;;;;;;0.95;0.77;;;6.80;99.90;;;;;;4949170;28;20196;-76
2023/01/10 02:28:17;;;;;;;1.13;0.80;;;6.90;99.90;;;;;;4952299;29;20197;-77
2023/01/10 02:30:49;;;;;;;2.17;1.00;;;6.90;99.90;;;;;;4933814;29;20181;-77
2023/01/10 02:33:22;;;;;;;1.10;1.00;;;6.90;99.90;;;;;;4934400;29;20240;-77
2023/01/10 02:36:10;;;;;;;1.17;1.08;;;6.80;99.90;;;;;;4950208;29;20220;-77
2023/01/10 02:39:09;;;;;;;1.40;1.10;;;6.80;99.90;;;;;;4932902;29;20197;-78
2023/01/10 02:41:58;;;;;;;1.35;1.15;;;6.60;99.90;;;;;;4951706;29;20276;-77
2023/01/10 02:44:34;;;;;;;1.20;1.08;;;6.70;99.90;;;;;;4931847;28;20219;-78
2023/01/10 02:47:02;;;;;;;1.13;1.00;;;6.80;99.90;;;;;;4951410;29;20760;-77
2023/01/10 02:49:28;;;;;;;1.10;1.00;;;6.80;99.90;;;;;;4948912;29;20194;-78
2023/01/10 02:51:54;;;;;;;2.00;1.00;;;6.90;99.90;;;;;;4950655;29;20689;-77
2023/01/10 02:54:25;;;;;;;1.95;1.00;;;6.60;99.90;;;;;;4949841;28;20661;-78
2023/01/10 02:57:08;;;;;;;1.30;1.20;;;6.80;99.90;;;;;;4934171;29;20200;-77
2023/01/10 02:59:45;;;;;;;0.73;0.73;;;6.60;99.90;;;;;;4945659;28;20272;-78
2023/01/10 03:02:28;;;;;;;1.17;1.08;;;6.50;99.90;;;;;;4950422;29;20181;-77
2023/01/10 03:05:41;;;;;;;3.58;1.13;;;6.70;99.90;;;;;;4944253;28;20552;-77
2023/01/10 03:08:18;;;;;;;2.08;1.20;;;6.50;99.90;;;;;;4925825;29;20216;-78
2023/01/10 03:10:54;;;;;;;1.30;1.20;;;6.70;99.90;;;;;;4949577;28;20503;-77
2023/01/10 03:13:42;;;;;;;1.35;1.10;;;6.10;99.90;;;;;;4949340;28;20307;-78
2023/01/10 03:16:14;;;;;;;1.23;1.13;;;6.40;99.90;;;;;;4949947;28;20208;-77
2023/01/10 03:19:05;;;;;;;1.65;1.17;;;6.50;99.90;;;;;;4949227;29;20567;-78
2023/01/10 03:21:33;;;;;;;2.03;1.58;;;6.40;99.90;;;;;;4951552;29;20256;-77
2023/01/10 03:24:05;;;;;;;1.52;1.10;;;5.90;99.90;;;;;;4942509;28;20209;-77
2023/01/10 03:26:51;;;;;;;2.47;1.40;;;6.40;99.90;;;;;;4947635;29;20181;-77
2023/01/10 03:30:03;;;;;;;4.63;1.65;;;6.00;99.90;;;;;;4947211;29;20188;-77
2023/01/10 03:32:29;;;;;;;2.40;2.10;;;6.40;99.90;;;;;;4937157;29;20501;-77
2023/01/10 03:34:57;;;;;;;2.75;1.92;;;6.50;99.90;;;;;;4932670;29;20205;-77
2023/01/10 03:37:28;;;;;;;2.17;1.95;;;6.80;99.90;;;;;;4949741;29;20181;-77
2023/01/10 03:40:05;;;;;;;2.03;1.73;;;6.70;99.90;;;;;;4948433;29;20185;-77
2023/01/10 03:45:48;;;;;;;4.05;2.00;;;6.50;99.90;;;;;;4947999;29;20200;-77
2023/01/10 03:48:15;;;;;;;4.63;2.13;;;6.60;99.90;;;;;;4947688;29;20232;-76
2023/01/10 03:50:42;;;;;;;4.60;1.92;;;6.70;99.90;;;;;;4950657;29;20290;-78
2023/01/10 03:53:09;;;;;;;4.10;2.00;;;7.00;99.90;;;;;;4947259;29;20355;-77
2023/01/10 03:55:36;;;;;;;4.47;2.40;;;6.20;99.90;;;;;;4946783;28;21864;-78
2023/01/10 03:58:01;;;;;;;3.42;1.83;;;6.70;99.90;;;;;;4949557;29;20177;-77
2023/01/10 04:00:27;;;;;;;3.23;2.23;;;7.00;99.90;;;;;;4945353;28;20212;-78
2023/01/10 04:02:52;;;;;;;3.10;2.20;;;6.50;99.90;;;;;;4948218;29;20212;-77
2023/01/10 04:05:18;;;;;;;3.70;2.17;;;6.70;99.90;;;;;;4948376;29;20336;-77
2023/01/10 04:07:43;;;;;;;2.90;1.73;;;6.40;99.90;;;;;;4945168;28;20185;-77
2023/01/10 04:10:09;;;;;;;3.20;1.67;;;6.50;99.90;;;;;;4949605;29;20276;-77
2023/01/10 04:12:35;;;;;;;4.20;2.03;;;6.30;99.90;;;;;;4945507;29;20212;-76
2023/01/10 04:15:01;;;;;;;4.37;2.60;;;6.50;99.90;;;;;;4943109;28;20197;-77
2023/01/10 04:17:27;;;;;;;3.00;1.92;;;6.40;99.90;;;;;;4947328;29;20188;-77
2023/01/10 04:19:53;;;;;;;2.17;1.37;;;6.20;99.90;;;;;;4948667;28;20188;-77
2023/01/10 04:22:18;;;;;;;3.72;1.48;;;6.40;99.90;;;;;;4947884;29;20196;-77
2023/01/10 04:24:45;;;;;;;2.00;1.80;;;6.40;99.90;;;;;;4943893;28;20211;-77
2023/01/10 04:27:11;;;;;;;4.50;1.50;;;6.30;99.90;;;;;;4948096;29;20252;-77
2023/01/10 04:29:36;;;;;;;2.60;1.70;;;6.50;99.90;;;;;;4945022;28;20189;-78
2023/01/10 04:32:02;;;;;;;2.23;1.60;;;6.30;99.90;;;;;;4947366;28;20216;-78
2023/01/10 04:34:28;;;;;;;3.50;2.40;;;6.60;99.90;;;;;;4947823;28;20691;-78
2023/01/10 04:36:53;;;;;;;2.10;1.43;;;6.30;99.90;;;;;;4953683;28;20193;-78
2023/01/10 04:39:19;;;;;;;2.93;1.90;;;6.60;99.90;;;;;;4952460;28;20602;-78
2023/01/10 04:41:44;;;;;;;7.43;2.17;;;6.40;99.90;;;;;;4954724;29;20181;-78
2023/01/10 04:44:10;;;;;;;4.00;1.80;;;6.40;99.90;;;;;;4951684;28;20214;-77
2023/01/10 04:46:35;;;;;;;2.67;1.93;;;6.50;99.90;;;;;;4936936;29;20561;-78
2023/01/10 04:49:01;;;;;;;4.53;2.23;;;6.40;99.90;;;;;;4954214;29;20197;-78
2023/01/10 04:51:28;;;;;;;2.50;1.90;;;6.30;99.90;;;;;;4953679;29;20192;-78
2023/01/10 04:53:54;;;;;;;4.72;1.90;;;6.70;99.90;;;;;;4935405;29;20215;-78
2023/01/10 04:56:21;;;;;;;2.57;2.00;;;6.10;99.90;;;;;;4954100;28;20919;-78
2023/01/10 04:58:47;;;;;;;3.95;2.17;;;6.00;99.90;;;;;;4953433;28;20185;-78
2023/01/10 05:01:20;;;;;;;2.47;1.98;;;6.40;99.90;;;;;;4951670;28;20188;-79
2023/01/10 05:03:55;;;;;;;4.38;1.95;;;6.10;99.90;;;;;;4948798;29;20229;-78
2023/01/10 05:06:22;;;;;;;4.70;2.15;;;6.50;99.90;;;;;;4950783;29;20205;-79
2023/01/10 05:08:48;;;;;;;3.47;2.60;;;6.30;99.90;;;;;;4952301;29;20558;-78
2023/01/10 05:11:14;;;;;;;3.10;1.83;;;6.00;99.90;;;;;;4947851;28;20188;-78
2023/01/10 05:13:39;;;;;;;3.23;2.60;;;6.10;99.90;;;;;;4933360;29;20219;-78
2023/01/10 05:16:05;;;;;;;3.37;2.70;;;5.90;99.90;;;;;;4948432;28;20288;-78
2023/01/10 05:18:31;;;;;;;3.92;1.98;;;6.00;99.90;;;;;;4953045;29;20185;-79
2023/01/10 05:21:07;;;;;;;4.50;2.17;;;6.40;99.90;;;;;;4950700;29;20220;-78
2023/01/10 05:23:33;;;;;;;3.28;2.03;;;6.00;99.90;;;;;;4949261;28;20215;-77
2023/01/10 05:26:11;;;;;;;4.93;2.33;;;5.90;99.90;;;;;;4933050;29;20280;-78
2023/01/10 05:28:37;;;;;;;3.97;2.22;;;6.00;99.90;;;;;;4949795;29;20451;-78
2023/01/10 05:31:05;;;;;;;4.13;1.92;;;6.50;99.90;;;;;;4949705;28;20230;-77
2023/01/10 05:33:31;;;;;;;3.78;2.05;;;5.90;99.90;;;;;;4950503;29;20624;-78
2023/01/10 05:35:56;;;;;;;4.47;2.63;;;6.50;99.90;;;;;;4952342;29;20240;-78
2023/01/10 05:38:22;;;;;;;3.90;1.80;;;6.20;99.90;;;;;;4951108;28;20188;-78
2023/01/10 05:40:47;;;;;;;4.10;2.60;;;6.70;99.90;;;;;;4951065;29;20180;-78
2023/01/10 05:43:13;;;;;;;3.70;2.37;;;6.30;99.90;;;;;;4931897;29;20752;-79
2023/01/10 05:45:38;;;;;;;2.93;1.80;;;6.50;99.90;;;;;;4944724;28;20191;-79
2023/01/10 05:48:04;;;;;;;2.57;2.07;;;6.80;99.90;;;;;;4952415;29;20197;-77
2023/01/10 05:50:30;;;;;;;5.53;2.33;;;6.50;99.90;;;;;;4949959;29;20543;-78
2023/01/10 05:53:02;;;;;;;4.47;3.60;;;6.30;99.90;;;;;;4951165;29;20251;-78
2023/01/10 05:55:27;;;;;;;3.28;2.42;;;6.50;99.90;;;;;;4950317;28;20223;-77
2023/01/10 05:57:53;;;;;;;6.63;2.17;;;6.60;99.90;;;;;;4951351;29;20886;-77
2023/01/10 06:00:19;;;;;;;3.80;1.87;;;6.50;99.90;;;;;;4931233;29;20724;-77
2023/01/10 06:02:45;;;;;;;5.78;2.42;;;6.60;99.90;;;;;;4950349;29;20189;-76
2023/01/10 06:05:10;;;;;;;4.83;2.13;;;6.30;99.90;;;;;;4948227;29;20196;-77
2023/01/10 06:07:36;;;;;;;3.10;2.43;;;6.50;99.90;;;;;;4951421;29;20207;-77
2023/01/10 06:10:02;;;;;;;7.63;2.50;;;6.60;99.90;;;;;;4947483;28;20189;-78
2023/01/10 06:12:27;;;;;;;6.43;2.43;;;6.50;99.90;;;;;;4944725;28;20268;-77
2023/01/10 06:14:53;;;;;;;5.40;2.17;;;6.70;99.90;;;;;;4942914;28;20287;-77
2023/01/10 06:17:18;;;;;;;3.43;1.80;;;6.70;99.90;;;;;;4951632;29;20621;-77
2023/01/10 06:19:44;;;;;;;5.10;2.00;;;6.50;99.90;;;;;;4952464;29;20209;-77
2023/01/10 06:22:10;;;;;;;5.57;2.40;;;6.70;99.90;;;;;;4946028;29;20282;-76
2023/01/10 06:24:35;;;;;;;4.03;1.93;;;6.60;99.90;;;;;;4928102;29;20494;-78
2023/01/10 06:27:01;;;;;;;9.63;2.60;;;6.60;99.90;;;;;;4952745;28;20181;-77
2023/01/10 06:29:26;;;;;;;5.27;2.57;;;6.60;99.90;;;;;;4946500;28;20189;-77
2023/01/10 06:31:52;;;;;;;4.50;2.00;;;6.70;99.90;;;;;;4951637;29;20288;-77
2023/01/10 06:34:17;;;;;;;7.53;3.53;;;6.60;99.90;;;;;;4949426;28;20209;-78
2023/01/10 06:36:43;;;;;;;6.10;1.67;;;6.60;99.90;;;;;;4951564;29;20268;-78
2023/01/10 06:39:08;;;;;;;6.47;1.73;;;6.50;99.90;;;;;;4946056;28;20215;-78
2023/01/10 06:41:35;;;;;;;4.43;1.50;;;6.50;99.90;;;;;;4949203;28;20725;-77
2023/01/10 06:44:00;;;;;;;5.07;2.00;;;6.80;99.90;;;;;;4946865;29;20204;-78
2023/01/10 06:46:26;;;;;;;6.17;2.30;;;6.30;99.90;;;;;;4945548;28;20259;-77
2023/01/10 06:48:51;;;;;;;4.53;2.80;;;6.20;99.90;;;;;;4927357;29;20527;-78
2023/01/10 06:51:17;;;;;;;6.77;2.10;;;6.60;99.90;;;;;;4950328;29;20212;-77
2023/01/10 06:53:43;;;;;;;3.87;1.70;;;6.70;99.90;;;;;;4946890;29;20248;-78
2023/01/10 06:56:09;;;;;;;2.00;1.40;;;6.80;99.90;;;;;;4947102;28;20192;-78
2023/01/10 06:58:37;;;;;;;8.02;3.80;;;6.50;99.90;;;;;;4943438;28;20189;-79
2023/01/10 07:01:11;;;;;;;3.33;1.90;;;6.70;99.90;;;;;;4929513;29;20189;-79
2023/01/10 07:03:39;;;;;;;2.20;1.60;;;6.60;99.90;;;;;;4947144;28;20211;-78
2023/01/10 07:06:08;;;;;;;3.95;2.08;;;6.50;99.90;;;;;;4950707;29;20185;-79
2023/01/10 07:08:41;;;;;;;4.45;1.80;;;6.60;99.90;;;;;;4948829;29;20282;-79
2023/01/10 07:11:10;;;;;;;4.57;1.80;;;6.60;99.90;;;;;;4947665;28;20181;-80
2023/01/10 07:13:36;;;;;;;4.95;2.00;;;7.00;99.90;;;;;;4931047;29;20620;-78
2023/01/10 07:16:10;;;;;;;7.20;1.67;;;6.70;99.90;;;;;;4945102;29;20184;-79
2023/01/10 07:18:37;;;;;;;5.55;2.13;;;6.60;99.90;;;;;;4945897;28;20452;-81
2023/01/10 07:21:03;;;;;;;4.13;1.40;;;6.80;99.90;;;;;;4938150;28;20276;-82
2023/01/10 07:23:32;;;;;;;6.33;2.53;;;6.60;99.90;;;;;;4948211;29;20675;-77
2023/01/10 07:26:01;;;;;;;3.60;1.80;;;6.70;99.90;;;;;;4950305;29;20185;-79
2023/01/10 07:28:26;;;;;;;5.72;2.10;;;6.90;99.90;;;;;;4950172;29;20193;-79
2023/01/10 07:30:52;;;;;;;3.23;1.30;;;6.70;99.90;;;;;;4931379;29;20196;-77
2023/01/10 07:33:17;;;;;;;4.33;1.83;;;6.70;99.90;;;;;;4948195;28;20658;-77
2023/01/10 07:35:43;;;;;;;4.27;1.40;;;7.20;99.90;;;;;;4944705;28;20181;-78
2023/01/10 07:38:08;;;;;;;9.67;2.10;;;7.30;99.90;;;;;;4944312;28;20181;-77
2023/01/10 07:40:34;;;;;;;3.70;1.80;;;6.80;99.90;;;;;;4947349;29;21742;-76
2023/01/10 07:43:01;;;;;;;3.03;1.43;;;6.80;99.90;;;;;;4949612;29;20208;-78
2023/01/10 07:45:28;;;;;;;3.08;2.05;;;7.10;99.90;;;;;;4931326;29;20188;-77
2023/01/10 07:47:58;;;;;;;7.57;2.10;;;6.80;99.90;;;;;;4931670;29;20243;-77
2023/01/10 07:50:25;;;;;;;6.47;2.08;;;6.90;99.90;;;;;;4946047;28;20181;-78
2023/01/10 07:52:50;;;;;;;2.83;1.60;;;6.50;99.90;;;;;;4930891;28;20223;-76
2023/01/10 07:55:16;;;;;;;3.70;1.50;;;6.80;99.90;;;;;;4948407;29;20561;-77
2023/01/10 07:57:42;;;;;;;5.37;1.90;;;7.00;99.90;;;;;;4949905;29;20587;-77
2023/01/10 08:00:08;;;;;;;6.50;1.80;;;7.30;99.90;;;;;;4932521;29;20445;-77
2023/01/10 08:02:34;;;;;;;5.88;2.20;;;7.30;99.90;;;;;;4931959;29;20533;-77
2023/01/10 08:04:59;;;;;;;5.80;1.67;;;7.10;99.90;;;;;;4947987;29;20748;-77
2023/01/10 08:07:27;;;;;;;3.77;2.10;;;7.10;99.90;;;;;;4950168;29;20189;-77
2023/01/10 08:09:52;;;;;;;2.50;1.48;;;7.30;99.90;;;;;;4931262;29;20189;-77
2023/01/10 08:12:19;;;;;;;4.03;2.50;;;7.10;99.90;;;;;;4951209;29;20212;-78
2023/01/10 08:14:44;;;;;;;3.25;1.70;;;7.20;99.90;;;;;;4949779;28;20208;-80
2023/01/10 08:17:10;;;;;;;5.30;2.07;;;7.30;99.90;;;;;;4951526;29;20185;-80
2023/01/10 08:19:35;;;;;;;7.47;2.80;;;7.00;99.90;;;;;;4948533;29;20564;-79
2023/01/10 08:22:02;;;;;;;6.47;1.70;;;6.90;99.90;;;;;;4944821;28;20193;-78
2023/01/10 08:24:27;;;;;;;4.20;1.65;;;7.30;99.90;;;;;;4948613;28;20216;-77
2023/01/10 08:26:56;;;;;;;5.03;1.73;;;7.00;99.90;;;;;;4947996;29;20201;-80
2023/01/10 08:29:21;;;;;;;8.48;2.35;;;7.30;99.90;;;;;;4946810;29;20185;-79
2023/01/10 08:31:47;;;;;;;7.40;1.63;;;7.10;99.90;;;;;;4945751;29;20257;-79
2023/01/10 08:34:13;;;;;;;4.83;2.03;;;7.00;99.90;;;;;;4928577;29;20204;-82
2023/01/10 08:36:38;;;;;;;4.80;3.10;;;7.50;99.90;;;;;;4931519;29;20205;-77
2023/01/10 08:39:04;;;;;;;2.27;1.63;;;7.00;99.90;;;;;;4946690;29;21801;-77
2023/01/10 08:41:30;;;;;;;4.17;3.23;;;7.60;99.90;;;;;;4948944;29;20201;-77
2023/01/10 08:43:55;;;;;;;5.00;2.03;;;7.20;99.90;;;;;;4949531;29;20220;-76
2023/01/10 08:46:21;;;;;;;1.53;1.33;;;7.50;99.90;;;;;;4948565;29;20829;-79
2023/01/10 08:48:49;;;;;;;4.47;1.97;;;7.60;99.90;;;;;;4946381;29;20228;-79
2023/01/10 08:51:14;;;;;;;6.25;1.70;;;7.80;99.90;;;;;;4945104;28;20236;-80
2023/01/10 08:53:40;;;;;;;7.67;2.13;;;8.00;99.90;;;;;;4947218;29;20217;-79
2023/01/10 08:56:06;;;;;;;4.20;1.50;;;7.60;99.90;;;;;;4933921;29;20460;-76
2023/01/10 08:58:32;;;;;;;3.45;1.50;;;7.50;99.90;;;;;;4929893;29;20443;-75
2023/01/10 09:00:57;;;;;;;4.33;1.93;;;7.90;99.90;;;;;;4944703;28;20185;-79
2023/01/10 09:03:23;;;;;;;4.00;2.17;;;8.10;99.90;;;;;;4929867;29;20244;-78
2023/01/10 09:05:49;;;;;;;11.77;2.10;;;7.30;99.90;;;;;;4930931;29;20200;-80
2023/01/10 09:08:14;;;;;;;2.90;2.00;;;7.50;99.90;;;;;;4929436;29;20193;-78
2023/01/10 09:10:40;;;;;;;6.43;2.67;;;7.70;99.90;;;;;;4947556;28;20264;-79
2023/01/10 09:13:06;;;;;;;5.20;2.53;;;7.90;99.90;;;;;;4931232;29;20315;-74
2023/01/10 09:15:33;;;;;;;4.33;1.73;;;7.90;99.90;;;;;;4924835;29;20951;-79
2023/01/10 09:18:05;;;;;;;4.82;1.75;;;8.10;99.90;;;;;;4929962;29;20272;-82
2023/01/10 09:20:33;;;;;;;3.03;1.70;;;7.00;99.90;;;;;;4927525;28;20272;-82
2023/01/10 09:23:04;;;;;;;7.13;2.15;;;7.40;99.90;;;;;;4933516;29;20212;-79
2023/01/10 09:25:29;;;;;;;4.10;1.80;;;7.90;99.90;;;;;;4938292;29;20185;-80
2023/01/10 09:27:59;;;;;;;9.00;2.53;;;7.60;99.90;;;;;;4933589;29;20192;-77
2023/01/10 09:30:27;;;;;;;2.67;2.17;;;7.30;99.90;;;;;;4952064;29;20724;-80
2023/01/10 09:32:53;;;;;;;4.88;2.45;;;7.30;99.90;;;;;;4935597;29;20215;-76
2023/01/10 09:35:19;;;;;;;5.88;2.30;;;7.10;99.90;;;;;;4952028;29;20180;-76
2023/01/10 09:37:44;;;;;;;7.37;2.43;;;7.50;99.90;;;;;;4951920;29;20556;-76
2023/01/10 09:40:19;;;;;;;6.57;2.57;;;7.50;99.90;;;;;;4949065;29;20607;-75
2023/01/10 09:42:58;;;;;;;2.67;1.98;;;7.90;99.90;;;;;;4950104;29;20224;-75
2023/01/10 09:45:51;;;;;;;5.80;2.10;;;7.60;99.90;;;;;;4944389;28;20189;-78
2023/01/10 09:48:27;;;;;;;4.50;2.55;;;7.50;99.90;;;;;;4913174;29;20219;-78
2023/01/10 09:51:34;;;;;;;5.00;2.50;;;7.50;99.90;;;;;;4950649;29;20184;-79
2023/01/10 09:54:03;;;;;;;6.28;2.90;;;7.60;99.90;;;;;;4900371;29;20685;-78
2023/01/10 09:56:31;;;;;;;5.28;2.88;;;7.40;99.90;;;;;;4951782;29;20608;-78
2023/01/10 09:58:58;;;;;;;4.20;2.25;;;8.00;99.90;;;;;;4949729;29;20177;-77
2023/01/10 10:01:35;;;;;;;5.18;2.40;;;8.10;99.90;;;;;;4948252;28;20712;-78
2023/01/10 10:04:22;;;;;;;3.38;1.92;;;7.90;99.90;;;;;;4932977;29;20292;-79
2023/01/10 10:06:52;;;;;;;5.75;2.60;;;7.80;99.90;;;;;;4939879;28;20181;-79
2023/01/10 10:09:34;;;;;;;4.75;2.60;;;8.00;99.90;;;;;;4934506;29;20665;-78
2023/01/10 10:12:05;;;;;;;6.75;2.90;;;7.90;99.90;;;;;;4949986;29;20220;-78
2023/01/10 10:14:59;;;;;;;4.20;2.55;;;7.90;99.90;;;;;;4950411;29;20263;-80
2023/01/10 10:17:39;;;;;;;4.57;2.05;;;7.80;99.90;;;;;;4935013;29;20197;-79
2023/01/10 10:20:20;;;;;;;7.10;2.30;;;7.90;99.90;;;;;;4951573;28;20192;-80
2023/01/10 10:23:04;;;;;;;3.95;2.20;;;8.20;99.90;;;;;;4948571;28;20248;-78
2023/01/10 10:25:41;;;;;;;3.88;2.28;;;8.30;99.90;;;;;;4930257;29;20180;-78
2023/01/10 10:28:21;;;;;;;2.72;1.92;;;8.60;99.90;;;;;;4949843;29;20195;-79
2023/01/10 10:31:32;;;;;;;6.03;1.73;;;8.40;99.90;;;;;;4944064;29;20192;-78
2023/01/10 10:34:35;;;;;;;4.93;2.30;;;8.50;99.90;;;;;;4930384;29;20243;-78
2023/01/10 10:37:22;;;;;;;7.80;2.70;;;8.40;99.90;;;;;;4947235;28;20269;-80
2023/01/10 10:40:22;;;;;;;4.95;1.80;;;8.60;99.90;;;;;;4947059;28;20189;-78
2023/01/10 10:42:51;;;;;;;3.60;1.75;;;8.50;99.90;;;;;;4917442;29;20309;-78
2023/01/10 10:45:20;;;;;;;4.88;1.65;;;8.70;99.90;;;;;;4949701;28;20276;-78
2023/01/10 10:48:05;;;;;;;4.07;1.77;;;8.40;99.90;;;;;;4947394;29;20201;-78
2023/01/10 10:50:33;;;;;;;4.03;1.83;;;8.50;99.90;;;;;;4947323;29;20203;-83
2023/01/10 10:53:01;;;;;;;3.15;1.65;;;8.70;99.90;;;;;;4946128;29;20229;-77
2023/01/10 10:55:35;;;;;;;6.43;1.70;;;8.40;99.90;;;;;;4930098;29;20185;-78
2023/01/10 10:58:05;;;;;;;1.73;1.63;;;8.50;99.90;;;;;;4947923;29;20176;-77
2023/01/10 11:00:31;;;;;;;1.75;1.33;;;8.40;99.90;;;;;;4945989;28;20273;-77
2023/01/10 11:03:06;;;;;;;4.60;2.50;;;8.40;99.90;;;;;;4949445;29;20352;-78
2023/01/10 11:05:39;;;;;;;3.30;1.83;;;9.00;99.90;;;;;;4948964;29;20448;-78
2023/01/10 11:08:11;;;;;;;7.13;2.05;;;8.60;99.90;;;;;;4950300;29;20189;-78
2023/01/10 11:10:38;;;;;;;3.88;1.77;;;8.50;99.90;;;;;;4931638;29;20282;-78
2023/01/10 11:13:25;;;;;;;3.75;2.10;;;8.60;99.90;;;;;;4948010;29;20217;-76
2023/01/10 11:15:51;;;;;;;3.75;1.70;;;8.20;99.90;;;;;;4947957;28;21450;-76
2023/01/10 11:18:19;;;;;;;1.87;1.70;;;8.70;99.90;;;;;;4948516;29;20189;-76
2023/01/10 11:20:59;;;;;;;1.75;1.65;;;8.10;99.90;;;;;;4946289;29;20181;-78
2023/01/10 11:23:39;;;;;;;4.82;1.50;;;8.60;99.90;;;;;;4932393;29;20220;-77
2023/01/10 11:26:19;;;;;;;3.88;2.10;;;9.00;99.90;;;;;;4946361;28;20196;-78
2023/01/10 11:28:45;;;;;;;5.40;2.00;;;8.90;99.90;;;;;;4950488;29;20192;-77
2023/01/10 11:31:10;;;;;;;5.40;3.13;;;8.60;99.90;;;;;;4949423;28;20185;-78
2023/01/10 11:33:38;;;;;;;2.53;1.70;;;8.60;99.90;;;;;;4949380;29;20239;-77
2023/01/10 11:36:11;;;;;;;4.93;2.38;;;9.20;99.90;;;;;;4933847;29;20190;-76
2023/01/10 11:38:37;;;;;;;5.53;2.33;;;8.60;99.90;;;;;;4931302;29;20191;-80
2023/01/10 11:41:23;;;;;;;3.77;1.77;;;8.30;99.90;;;;;;4951284;29;20181;-76
2023/01/10 11:43:49;;;;;;;3.42;1.88;;;9.10;99.90;;;;;;4948633;28;20219;-77
2023/01/10 11:46:19;;;;;;;5.73;2.37;;;9.00;99.90;;;;;;4945933;29;20197;-79
2023/01/10 11:48:45;;;;;;;4.18;2.25;;;8.60;99.90;;;;;;4945154;28;20189;-77
2023/01/10 11:51:50;;;;;;;5.03;2.03;;;9.20;99.90;;;;;;4950210;29;20489;-78
2023/01/10 11:54:25;;;;;;;2.78;1.60;;;9.00;99.90;;;;;;4943288;29;20216;-78
2023/01/10 11:57:22;;;;;;;4.07;1.70;;;9.00;99.90;;;;;;4949844;29;20615;-77
2023/01/10 12:00:00;;;;;;;2.03;1.70;;;8.80;99.90;;;;;;4927703;29;20229;-78
2023/01/10 12:02:33;;;;;;;2.50;2.30;;;8.50;99.90;;;;;;4933143;29;20299;-78
2023/01/10 12:05:01;;;;;;;1.85;1.50;;;9.00;99.90;;;;;;4949970;29;20212;-79
2023/01/10 12:07:27;;;;;;;2.47;1.50;;;8.50;99.90;;;;;;4951106;28;20189;-77
2023/01/10 12:10:01;;;;;;;2.73;1.63;;;9.10;99.90;;;;;;4947878;28;20673;-77
2023/01/10 12:12:34;;;;;;;2.88;1.50;;;8.40;99.90;;;;;;4949823;29;20755;-77
2023/01/10 12:15:23;;;;;;;3.72;1.80;;;9.40;99.90;;;;;;4947792;28;20202;-77
2023/01/10 12:17:50;;;;;;;3.05;1.80;;;9.20;99.90;;;;;;4949159;29;20186;-78
2023/01/10 12:20:15;;;;;;;3.03;2.00;;;9.30;99.90;;;;;;4932637;29;20272;-77
2023/01/10 12:22:45;;;;;;;3.23;2.60;;;9.30;99.90;;;;;;4928939;28;20595;-77
2023/01/10 12:25:49;;;;;;;2.63;1.52;;;9.10;99.90;;;;;;4946179;29;20200;-78
2023/01/10 12:28:25;;;;;;;2.95;1.77;;;8.90;99.90;;;;;;4891064;29;20198;-78
2023/01/10 12:30:54;;;;;;;3.65;1.88;;;8.40;99.90;;;;;;4928368;29;20232;-77
2023/01/10 12:33:24;;;;;;;5.70;2.78;;;9.30;99.90;;;;;;4949707;29;20681;-78
2023/01/10 12:35:58;;;;;;;3.05;2.58;;;8.60;99.90;;;;;;4950157;29;20553;-78
2023/01/10 12:44:42;;;;;;;4.88;1.95;;;9.10;99.90;;;;;;4947241;28;20623;-78
2023/01/10 12:47:21;;;;;;;3.30;1.75;;;9.30;98.60;;;;;;4932616;29;20201;-77
2023/01/10 12:50:13;;;;;;;5.32;1.73;;;9.20;98.10;;;;;;4950353;29;20811;-77
2023/01/10 12:52:44;;;;;;;5.20;1.50;;;8.80;97.10;;;;;;4946480;28;20257;-78
2023/01/10 12:55:18;;;;;;;8.70;1.80;;;9.30;98.00;;;;;;4932884;28;20182;-78
2023/01/10 12:57:48;;;;;;;5.30;2.00;;;9.10;97.70;;;;;;4949832;29;20643;-77
2023/01/10 13:00:23;;;;;;;2.78;1.33;;;9.20;97.30;;;;;;4949509;28;20616;-78
2023/01/10 13:02:53;;;;;;;3.22;1.65;;;8.80;96.60;;;;;;4951195;29;20185;-76
2023/01/10 13:05:28;;;;;;;5.07;1.42;;;8.50;97.00;;;;;;4935953;29;20240;-78
2023/01/10 13:07:59;;;;;;;3.25;1.40;;;9.00;97.40;;;;;;4953569;29;20189;-77
2023/01/10 13:10:26;;;;;;;2.63;2.00;;;8.90;97.40;;;;;;4935273;29;20189;-78
2023/01/10 13:13:12;;;;;;;3.17;1.85;;;9.30;96.80;;;;;;4953246;29;20654;-78
2023/01/10 13:15:47;;;;;;;3.13;1.48;;;8.90;97.00;;;;;;4934641;29;20557;-78
2023/01/10 13:18:24;;;;;;;2.55;1.27;;;9.10;97.10;;;;;;4950266;29;20181;-77
2023/01/10 13:21:07;;;;;;;3.03;1.10;;;9.10;97.30;;;;;;4945440;28;20317;-78
2023/01/10 13:23:38;;;;;;;2.00;1.20;;;9.10;96.00;;;;;;4952975;29;20756;-78
2023/01/10 13:26:08;;;;;;;4.60;2.08;;;9.00;95.80;;;;;;4935737;29;20280;-78
2023/01/10 13:28:38;;;;;;;3.42;1.50;;;9.00;96.10;;;;;;4935776;29;20686;-77
2023/01/10 13:31:06;;;;;;;4.15;1.80;;;9.10;96.50;;;;;;4932320;29;20197;-78
2023/01/10 13:33:47;;;;;;;4.22;1.20;;;8.60;96.80;;;;;;4952529;29;20224;-78